HTIR/IRI METAR and TAF weather

Enter ICAO airport designator
Station Type Date Time Source
HTIR METAR 2021/07/28 18:00 UTC NOAA

HTIR 281800Z 19007KT 9999 SKC 16/08 Q1022


Station Type Date Time Source
HTIR Decoded METAR 2021/07/28 18:00 UTC NOAA

Iringa, Tanzania (HTIR) 07-40S 035-45E 1428M
Jul 28, 2021 - 02:00 PM EDT / 2021.07.28 1800 UTC
Wind: from the S (190 degrees) at 8 MPH (7 KT):0
Visibility: greater than 7 mile(s):0
Sky conditions: clear
Temperature: 60 F (16 C)
Dew Point: 46 F (8 C)
Relative Humidity: 58%
Pressure (altimeter): 30.18 in. Hg (1022 hPa)
ob: HTIR 281800Z 19007KT 9999 SKC 16/08 Q1022
cycle: 18

Station Type Date Time Source
HTIR TAF UTC NOAA

Error!

Example: see airport list